sensor_id;sensor_type;location;lat;lon;timestamp;P1;durP1;ratioP1;P2;durP2;ratioP2
23394;SDS011;11870;53.084;18.206;2022-12-13T00:01:24;12.15;;;6.45;;
23394;SDS011;11870;53.084;18.206;2022-12-13T00:03:51;12.75;;;6.32;;
23394;SDS011;11870;53.084;18.206;2022-12-13T00:06:18;11.95;;;6.78;;
23394;SDS011;11870;53.084;18.206;2022-12-13T00:08:44;9.82;;;5.55;;
23394;SDS011;11870;53.084;18.206;2022-12-13T00:11:10;10.60;;;5.38;;
23394;SDS011;11870;53.084;18.206;2022-12-13T00:13:38;8.50;;;4.35;;
23394;SDS011;11870;53.084;18.206;2022-12-13T00:16:06;11.60;;;5.45;;
23394;SDS011;11870;53.084;18.206;2022-12-13T00:18:37;9.55;;;5.65;;
23394;SDS011;11870;53.084;18.206;2022-12-13T00:21:04;9.20;;;4.63;;
23394;SDS011;11870;53.084;18.206;2022-12-13T00:23:31;8.85;;;4.97;;
23394;SDS011;11870;53.084;18.206;2022-12-13T00:26:01;10.13;;;5.07;;
23394;SDS011;11870;53.084;18.206;2022-12-13T00:28:28;9.45;;;4.90;;
23394;SDS011;11870;53.084;18.206;2022-12-13T00:31:00;9.20;;;4.88;;
23394;SDS011;11870;53.084;18.206;2022-12-13T00:33:27;7.90;;;4.00;;
23394;SDS011;11870;53.084;18.206;2022-12-13T00:35:53;8.45;;;4.82;;
23394;SDS011;11870;53.084;18.206;2022-12-13T00:38:19;11.20;;;5.28;;
23394;SDS011;11870;53.084;18.206;2022-12-13T00:40:45;10.65;;;4.93;;
23394;SDS011;11870;53.084;18.206;2022-12-13T00:43:12;8.65;;;5.32;;
23394;SDS011;11870;53.084;18.206;2022-12-13T00:45:37;9.90;;;5.60;;
23394;SDS011;11870;53.084;18.206;2022-12-13T00:48:04;10.27;;;5.60;;
23394;SDS011;11870;53.084;18.206;2022-12-13T00:50:31;11.13;;;6.07;;
23394;SDS011;11870;53.084;18.206;2022-12-13T00:52:58;15.30;;;6.57;;
23394;SDS011;11870;53.084;18.206;2022-12-13T00:55:25;12.38;;;6.03;;
23394;SDS011;11870;53.084;18.206;2022-12-13T00:57:51;13.10;;;7.45;;
23394;SDS011;11870;53.084;18.206;2022-12-13T01:00:17;15.30;;;8.68;;
23394;SDS011;11870;53.084;18.206;2022-12-13T01:02:43;17.33;;;10.10;;
23394;SDS011;11870;53.084;18.206;2022-12-13T01:05:10;16.30;;;9.27;;
23394;SDS011;11870;53.084;18.206;2022-12-13T01:07:37;19.48;;;9.52;;
23394;SDS011;11870;53.084;18.206;2022-12-13T01:10:04;12.50;;;7.10;;
23394;SDS011;11870;53.084;18.206;2022-12-13T01:12:32;14.18;;;8.18;;
23394;SDS011;11870;53.084;18.206;2022-12-13T01:15:00;15.88;;;8.15;;
23394;SDS011;11870;53.084;18.206;2022-12-13T01:17:26;12.77;;;7.47;;
23394;SDS011;11870;53.084;18.206;2022-12-13T01:19:53;12.95;;;7.78;;
23394;SDS011;11870;53.084;18.206;2022-12-13T01:22:19;12.70;;;6.53;;
23394;SDS011;11870;53.084;18.206;2022-12-13T01:24:47;14.55;;;6.35;;
23394;SDS011;11870;53.084;18.206;2022-12-13T01:27:13;14.40;;;6.22;;
23394;SDS011;11870;53.084;18.206;2022-12-13T01:29:39;15.52;;;6.07;;
23394;SDS011;11870;53.084;18.206;2022-12-13T01:32:05;12.60;;;6.22;;
23394;SDS011;11870;53.084;18.206;2022-12-13T01:34:31;13.80;;;5.95;;
23394;SDS011;11870;53.084;18.206;2022-12-13T01:36:57;11.20;;;5.00;;
23394;SDS011;11870;53.084;18.206;2022-12-13T01:39:23;10.82;;;5.68;;
23394;SDS011;11870;53.084;18.206;2022-12-13T01:41:50;10.80;;;5.38;;
23394;SDS011;11870;53.084;18.206;2022-12-13T01:47:35;9.52;;;5.10;;
23394;SDS011;11870;53.084;18.206;2022-12-13T01:50:03;8.35;;;4.18;;
23394;SDS011;11870;53.084;18.206;2022-12-13T01:52:33;8.88;;;4.75;;
23394;SDS011;11870;53.084;18.206;2022-12-13T01:55:00;10.23;;;5.00;;
23394;SDS011;11870;53.084;18.206;2022-12-13T01:57:29;7.75;;;4.57;;
23394;SDS011;11870;53.084;18.206;2022-12-13T01:59:57;11.77;;;6.10;;
23394;SDS011;11870;53.084;18.206;2022-12-13T02:02:23;8.27;;;5.00;;
23394;SDS011;11870;53.084;18.206;2022-12-13T02:05:24;10.73;;;5.82;;
23394;SDS011;11870;53.084;18.206;2022-12-13T02:07:48;10.52;;;5.70;;
23394;SDS011;11870;53.084;18.206;2022-12-13T02:10:15;10.20;;;5.65;;
23394;SDS011;11870;53.084;18.206;2022-12-13T02:12:41;10.80;;;5.47;;
23394;SDS011;11870;53.084;18.206;2022-12-13T02:15:12;10.05;;;5.00;;
23394;SDS011;11870;53.084;18.206;2022-12-13T02:31:42;7.63;;;4.13;;
23394;SDS011;11870;53.084;18.206;2022-12-13T02:34:19;6.93;;;3.95;;
23394;SDS011;11870;53.084;18.206;2022-12-13T02:37:00;6.85;;;4.10;;
23394;SDS011;11870;53.084;18.206;2022-12-13T02:39:33;8.55;;;4.20;;
23394;SDS011;11870;53.084;18.206;2022-12-13T02:42:15;6.90;;;3.67;;
23394;SDS011;11870;53.084;18.206;2022-12-13T02:44:49;7.43;;;3.97;;
23394;SDS011;11870;53.084;18.206;2022-12-13T02:47:21;6.90;;;3.45;;
23394;SDS011;11870;53.084;18.206;2022-12-13T02:49:50;6.93;;;3.65;;
23394;SDS011;11870;53.084;18.206;2022-12-13T02:52:20;8.48;;;3.63;;
23394;SDS011;11870;53.084;18.206;2022-12-13T02:54:49;6.60;;;3.88;;
23394;SDS011;11870;53.084;18.206;2022-12-13T02:57:28;6.93;;;3.60;;
23394;SDS011;11870;53.084;18.206;2022-12-13T03:00:04;6.75;;;3.58;;
23394;SDS011;11870;53.084;18.206;2022-12-13T03:02:41;8.30;;;4.40;;
23394;SDS011;11870;53.084;18.206;2022-12-13T03:05:33;6.38;;;3.67;;
23394;SDS011;11870;53.084;18.206;2022-12-13T03:09:01;6.82;;;3.50;;
23394;SDS011;11870;53.084;18.206;2022-12-13T03:11:52;9.65;;;3.67;;
23394;SDS011;11870;53.084;18.206;2022-12-13T03:15:06;6.47;;;3.90;;
23394;SDS011;11870;53.084;18.206;2022-12-13T03:17:55;9.90;;;4.45;;
23394;SDS011;11870;53.084;18.206;2022-12-13T03:20:27;11.35;;;4.88;;
23394;SDS011;11870;53.084;18.206;2022-12-13T03:22:54;13.35;;;5.70;;
23394;SDS011;11870;53.084;18.206;2022-12-13T03:25:21;13.20;;;5.30;;
23394;SDS011;11870;53.084;18.206;2022-12-13T03:27:49;12.35;;;5.75;;
23394;SDS011;11870;53.084;18.206;2022-12-13T03:30:15;13.23;;;5.93;;
23394;SDS011;11870;53.084;18.206;2022-12-13T03:32:42;13.93;;;6.18;;
23394;SDS011;11870;53.084;18.206;2022-12-13T03:35:07;10.68;;;5.95;;
23394;SDS011;11870;53.084;18.206;2022-12-13T03:37:33;11.60;;;5.25;;
23394;SDS011;11870;53.084;18.206;2022-12-13T03:39:59;12.32;;;5.65;;
23394;SDS011;11870;53.084;18.206;2022-12-13T03:42:26;14.75;;;6.15;;
23394;SDS011;11870;53.084;18.206;2022-12-13T03:44:52;10.90;;;5.57;;
23394;SDS011;11870;53.084;18.206;2022-12-13T03:47:18;12.30;;;5.13;;
23394;SDS011;11870;53.084;18.206;2022-12-13T03:49:45;9.70;;;5.25;;
23394;SDS011;11870;53.084;18.206;2022-12-13T03:52:11;10.25;;;4.95;;
23394;SDS011;11870;53.084;18.206;2022-12-13T03:54:36;12.10;;;5.43;;
23394;SDS011;11870;53.084;18.206;2022-12-13T03:57:02;11.48;;;5.85;;
23394;SDS011;11870;53.084;18.206;2022-12-13T03:59:28;15.23;;;5.85;;
23394;SDS011;11870;53.084;18.206;2022-12-13T04:01:54;12.07;;;6.03;;
23394;SDS011;11870;53.084;18.206;2022-12-13T04:04:20;12.43;;;5.63;;
23394;SDS011;11870;53.084;18.206;2022-12-13T04:06:46;13.07;;;5.72;;
23394;SDS011;11870;53.084;18.206;2022-12-13T04:09:12;9.48;;;4.90;;
23394;SDS011;11870;53.084;18.206;2022-12-13T04:11:38;16.35;;;5.45;;
23394;SDS011;11870;53.084;18.206;2022-12-13T04:14:22;13.00;;;5.78;;
23394;SDS011;11870;53.084;18.206;2022-12-13T04:16:49;11.38;;;5.55;;
23394;SDS011;11870;53.084;18.206;2022-12-13T04:19:16;10.30;;;5.25;;
23394;SDS011;11870;53.084;18.206;2022-12-13T04:21:42;10.95;;;5.25;;
23394;SDS011;11870;53.084;18.206;2022-12-13T04:24:08;14.13;;;6.10;;
23394;SDS011;11870;53.084;18.206;2022-12-13T04:26:34;10.55;;;5.38;;
23394;SDS011;11870;53.084;18.206;2022-12-13T04:29:00;13.73;;;5.78;;
23394;SDS011;11870;53.084;18.206;2022-12-13T04:31:26;10.95;;;5.35;;
23394;SDS011;11870;53.084;18.206;2022-12-13T04:33:51;8.65;;;4.75;;
23394;SDS011;11870;53.084;18.206;2022-12-13T04:36:17;11.07;;;5.00;;
23394;SDS011;11870;53.084;18.206;2022-12-13T04:38:49;11.65;;;4.60;;
23394;SDS011;11870;53.084;18.206;2022-12-13T04:41:16;12.25;;;5.93;;
23394;SDS011;11870;53.084;18.206;2022-12-13T04:43:43;9.90;;;4.80;;
23394;SDS011;11870;53.084;18.206;2022-12-13T04:46:14;11.23;;;5.18;;
23394;SDS011;11870;53.084;18.206;2022-12-13T04:48:40;9.82;;;5.25;;
23394;SDS011;11870;53.084;18.206;2022-12-13T04:51:06;10.02;;;4.95;;
23394;SDS011;11870;53.084;18.206;2022-12-13T04:53:32;11.48;;;4.93;;
23394;SDS011;11870;53.084;18.206;2022-12-13T04:55:58;9.80;;;4.93;;
23394;SDS011;11870;53.084;18.206;2022-12-13T04:58:27;10.00;;;5.28;;
23394;SDS011;11870;53.084;18.206;2022-12-13T05:00:53;11.38;;;5.22;;
23394;SDS011;11870;53.084;18.206;2022-12-13T05:03:20;9.63;;;5.30;;
23394;SDS011;11870;53.084;18.206;2022-12-13T05:05:46;10.38;;;5.10;;
23394;SDS011;11870;53.084;18.206;2022-12-13T05:08:12;12.15;;;5.45;;
23394;SDS011;11870;53.084;18.206;2022-12-13T05:10:38;11.43;;;5.28;;
23394;SDS011;11870;53.084;18.206;2022-12-13T05:13:04;8.32;;;4.82;;
23394;SDS011;11870;53.084;18.206;2022-12-13T05:15:31;11.90;;;5.88;;
23394;SDS011;11870;53.084;18.206;2022-12-13T05:18:01;10.88;;;5.30;;
23394;SDS011;11870;53.084;18.206;2022-12-13T05:20:28;11.18;;;4.95;;
23394;SDS011;11870;53.084;18.206;2022-12-13T05:22:55;9.63;;;4.82;;
23394;SDS011;11870;53.084;18.206;2022-12-13T05:25:25;8.10;;;4.10;;
23394;SDS011;11870;53.084;18.206;2022-12-13T05:27:51;9.45;;;5.00;;
23394;SDS011;11870;53.084;18.206;2022-12-13T05:30:18;9.60;;;5.15;;
23394;SDS011;11870;53.084;18.206;2022-12-13T05:32:44;9.10;;;5.10;;
23394;SDS011;11870;53.084;18.206;2022-12-13T05:35:11;11.60;;;4.82;;
23394;SDS011;11870;53.084;18.206;2022-12-13T05:37:38;11.25;;;5.13;;
23394;SDS011;11870;53.084;18.206;2022-12-13T05:40:04;7.30;;;3.97;;
23394;SDS011;11870;53.084;18.206;2022-12-13T05:42:30;11.60;;;5.13;;
23394;SDS011;11870;53.084;18.206;2022-12-13T05:44:56;8.43;;;4.63;;
23394;SDS011;11870;53.084;18.206;2022-12-13T05:47:22;10.25;;;4.72;;
23394;SDS011;11870;53.084;18.206;2022-12-13T05:49:48;10.07;;;4.63;;
23394;SDS011;11870;53.084;18.206;2022-12-13T05:52:17;9.35;;;4.60;;
23394;SDS011;11870;53.084;18.206;2022-12-13T05:54:45;9.18;;;4.85;;
23394;SDS011;11870;53.084;18.206;2022-12-13T05:57:11;8.55;;;4.20;;
23394;SDS011;11870;53.084;18.206;2022-12-13T05:59:37;9.82;;;4.57;;
23394;SDS011;11870;53.084;18.206;2022-12-13T06:02:03;10.15;;;4.75;;
23394;SDS011;11870;53.084;18.206;2022-12-13T06:04:29;7.82;;;4.70;;
23394;SDS011;11870;53.084;18.206;2022-12-13T06:06:55;10.90;;;5.22;;
23394;SDS011;11870;53.084;18.206;2022-12-13T06:09:21;7.63;;;4.65;;
23394;SDS011;11870;53.084;18.206;2022-12-13T06:11:47;12.85;;;4.28;;
23394;SDS011;11870;53.084;18.206;2022-12-13T06:14:14;9.40;;;4.90;;
23394;SDS011;11870;53.084;18.206;2022-12-13T06:16:40;9.20;;;4.72;;
23394;SDS011;11870;53.084;18.206;2022-12-13T06:19:06;10.10;;;4.93;;
23394;SDS011;11870;53.084;18.206;2022-12-13T06:21:32;11.15;;;5.25;;
23394;SDS011;11870;53.084;18.206;2022-12-13T06:23:59;12.07;;;4.80;;
23394;SDS011;11870;53.084;18.206;2022-12-13T06:26:25;11.20;;;5.28;;
23394;SDS011;11870;53.084;18.206;2022-12-13T06:28:51;12.82;;;6.13;;
23394;SDS011;11870;53.084;18.206;2022-12-13T06:31:17;12.00;;;5.20;;
23394;SDS011;11870;53.084;18.206;2022-12-13T06:33:43;10.88;;;5.07;;
23394;SDS011;11870;53.084;18.206;2022-12-13T06:36:08;9.25;;;5.18;;
23394;SDS011;11870;53.084;18.206;2022-12-13T06:38:35;11.05;;;5.35;;
23394;SDS011;11870;53.084;18.206;2022-12-13T06:41:07;10.68;;;5.00;;
23394;SDS011;11870;53.084;18.206;2022-12-13T06:43:35;11.80;;;5.75;;
23394;SDS011;11870;53.084;18.206;2022-12-13T06:46:03;9.90;;;5.30;;
23394;SDS011;11870;53.084;18.206;2022-12-13T06:48:30;10.43;;;5.20;;
23394;SDS011;11870;53.084;18.206;2022-12-13T06:51:03;13.07;;;5.55;;
23394;SDS011;11870;53.084;18.206;2022-12-13T06:53:30;11.68;;;5.30;;
23394;SDS011;11870;53.084;18.206;2022-12-13T06:55:56;9.30;;;5.50;;
23394;SDS011;11870;53.084;18.206;2022-12-13T06:58:27;12.23;;;5.80;;
23394;SDS011;11870;53.084;18.206;2022-12-13T07:00:59;9.93;;;5.38;;
23394;SDS011;11870;53.084;18.206;2022-12-13T07:03:30;11.57;;;5.97;;
23394;SDS011;11870;53.084;18.206;2022-12-13T07:05:57;12.85;;;6.25;;
23394;SDS011;11870;53.084;18.206;2022-12-13T07:08:24;9.23;;;4.97;;
23394;SDS011;11870;53.084;18.206;2022-12-13T07:10:51;11.27;;;5.40;;
23394;SDS011;11870;53.084;18.206;2022-12-13T07:13:20;12.30;;;6.30;;
23394;SDS011;11870;53.084;18.206;2022-12-13T07:15:46;13.50;;;6.18;;
23394;SDS011;11870;53.084;18.206;2022-12-13T07:18:13;14.75;;;6.68;;
23394;SDS011;11870;53.084;18.206;2022-12-13T07:20:39;13.40;;;6.32;;
23394;SDS011;11870;53.084;18.206;2022-12-13T07:23:06;14.73;;;6.13;;
23394;SDS011;11870;53.084;18.206;2022-12-13T07:25:32;12.25;;;6.43;;
23394;SDS011;11870;53.084;18.206;2022-12-13T07:28:02;11.27;;;5.85;;
23394;SDS011;11870;53.084;18.206;2022-12-13T07:30:34;13.23;;;6.75;;
23394;SDS011;11870;53.084;18.206;2022-12-13T07:33:03;15.07;;;6.50;;
23394;SDS011;11870;53.084;18.206;2022-12-13T07:35:30;13.40;;;6.32;;
23394;SDS011;11870;53.084;18.206;2022-12-13T07:37:57;17.02;;;6.50;;
23394;SDS011;11870;53.084;18.206;2022-12-13T07:40:23;14.38;;;6.05;;
23394;SDS011;11870;53.084;18.206;2022-12-13T07:42:50;12.13;;;6.55;;
23394;SDS011;11870;53.084;18.206;2022-12-13T07:45:17;16.73;;;6.97;;
23394;SDS011;11870;53.084;18.206;2022-12-13T07:47:43;17.42;;;7.15;;
23394;SDS011;11870;53.084;18.206;2022-12-13T07:50:09;17.63;;;7.53;;
23394;SDS011;11870;53.084;18.206;2022-12-13T07:52:36;16.55;;;6.70;;
23394;SDS011;11870;53.084;18.206;2022-12-13T07:55:02;12.25;;;5.38;;
23394;SDS011;11870;53.084;18.206;2022-12-13T07:57:29;14.35;;;6.45;;
23394;SDS011;11870;53.084;18.206;2022-12-13T07:59:55;13.60;;;6.72;;
23394;SDS011;11870;53.084;18.206;2022-12-13T08:02:22;13.95;;;6.65;;
23394;SDS011;11870;53.084;18.206;2022-12-13T08:04:49;14.63;;;7.35;;
23394;SDS011;11870;53.084;18.206;2022-12-13T08:07:16;14.35;;;6.55;;
23394;SDS011;11870;53.084;18.206;2022-12-13T08:09:41;14.18;;;6.28;;
23394;SDS011;11870;53.084;18.206;2022-12-13T08:12:07;12.93;;;6.63;;
23394;SDS011;11870;53.084;18.206;2022-12-13T08:14:33;15.77;;;7.32;;
23394;SDS011;11870;53.084;18.206;2022-12-13T08:16:59;14.75;;;7.20;;
23394;SDS011;11870;53.084;18.206;2022-12-13T08:19:25;12.85;;;6.15;;
23394;SDS011;11870;53.084;18.206;2022-12-13T08:21:51;13.35;;;6.03;;
23394;SDS011;11870;53.084;18.206;2022-12-13T08:24:18;12.40;;;6.63;;
23394;SDS011;11870;53.084;18.206;2022-12-13T08:26:44;12.85;;;6.30;;
23394;SDS011;11870;53.084;18.206;2022-12-13T08:29:10;11.05;;;6.03;;
23394;SDS011;11870;53.084;18.206;2022-12-13T08:31:37;13.07;;;6.55;;
23394;SDS011;11870;53.084;18.206;2022-12-13T08:34:03;15.68;;;6.43;;
23394;SDS011;11870;53.084;18.206;2022-12-13T08:36:29;12.85;;;6.18;;
23394;SDS011;11870;53.084;18.206;2022-12-13T08:38:55;14.38;;;6.40;;
23394;SDS011;11870;53.084;18.206;2022-12-13T08:41:23;10.73;;;6.05;;
23394;SDS011;11870;53.084;18.206;2022-12-13T08:43:49;13.43;;;6.13;;
23394;SDS011;11870;53.084;18.206;2022-12-13T08:46:15;11.43;;;6.60;;
23394;SDS011;11870;53.084;18.206;2022-12-13T08:48:41;13.45;;;6.18;;
23394;SDS011;11870;53.084;18.206;2022-12-13T08:51:09;15.85;;;6.32;;
23394;SDS011;11870;53.084;18.206;2022-12-13T08:53:37;14.88;;;5.85;;
23394;SDS011;11870;53.084;18.206;2022-12-13T08:56:04;12.15;;;5.75;;
23394;SDS011;11870;53.084;18.206;2022-12-13T08:58:32;13.55;;;5.97;;
23394;SDS011;11870;53.084;18.206;2022-12-13T09:00:58;13.38;;;6.15;;
23394;SDS011;11870;53.084;18.206;2022-12-13T09:03:24;13.18;;;6.60;;
23394;SDS011;11870;53.084;18.206;2022-12-13T09:05:50;11.73;;;5.75;;
23394;SDS011;11870;53.084;18.206;2022-12-13T09:08:16;10.80;;;5.82;;
23394;SDS011;11870;53.084;18.206;2022-12-13T09:10:43;12.35;;;5.40;;
23394;SDS011;11870;53.084;18.206;2022-12-13T09:13:10;10.55;;;5.80;;
23394;SDS011;11870;53.084;18.206;2022-12-13T09:15:37;11.82;;;5.80;;
23394;SDS011;11870;53.084;18.206;2022-12-13T09:18:03;15.25;;;6.50;;
23394;SDS011;11870;53.084;18.206;2022-12-13T09:20:30;13.23;;;6.65;;
23394;SDS011;11870;53.084;18.206;2022-12-13T09:22:55;11.50;;;5.72;;
23394;SDS011;11870;53.084;18.206;2022-12-13T09:25:22;12.85;;;5.25;;
23394;SDS011;11870;53.084;18.206;2022-12-13T09:27:47;10.63;;;5.68;;
23394;SDS011;11870;53.084;18.206;2022-12-13T09:30:13;10.45;;;5.10;;
23394;SDS011;11870;53.084;18.206;2022-12-13T09:32:40;9.80;;;5.10;;
23394;SDS011;11870;53.084;18.206;2022-12-13T09:35:08;12.15;;;5.38;;
23394;SDS011;11870;53.084;18.206;2022-12-13T09:37:33;9.32;;;5.05;;
23394;SDS011;11870;53.084;18.206;2022-12-13T09:40:00;9.93;;;4.70;;
23394;SDS011;11870;53.084;18.206;2022-12-13T09:42:26;11.85;;;5.68;;
23394;SDS011;11870;53.084;18.206;2022-12-13T09:45:02;8.20;;;5.00;;
23394;SDS011;11870;53.084;18.206;2022-12-13T09:47:32;11.05;;;4.75;;
23394;SDS011;11870;53.084;18.206;2022-12-13T09:50:12;9.73;;;4.97;;
23394;SDS011;11870;53.084;18.206;2022-12-13T09:52:48;11.95;;;4.80;;
23394;SDS011;11870;53.084;18.206;2022-12-13T09:55:24;12.80;;;4.78;;
23394;SDS011;11870;53.084;18.206;2022-12-13T09:57:53;10.70;;;4.72;;
23394;SDS011;11870;53.084;18.206;2022-12-13T10:00:21;11.25;;;5.57;;
23394;SDS011;11870;53.084;18.206;2022-12-13T10:02:56;18.15;;;6.40;;
23394;SDS011;11870;53.084;18.206;2022-12-13T10:05:27;10.85;;;4.70;;
23394;SDS011;11870;53.084;18.206;2022-12-13T10:08:04;8.93;;;4.40;;
23394;SDS011;11870;53.084;18.206;2022-12-13T10:10:37;8.63;;;4.65;;
23394;SDS011;11870;53.084;18.206;2022-12-13T10:13:15;8.60;;;4.57;;
23394;SDS011;11870;53.084;18.206;2022-12-13T10:15:49;12.05;;;5.15;;
23394;SDS011;11870;53.084;18.206;2022-12-13T10:18:40;10.80;;;4.50;;
23394;SDS011;11870;53.084;18.206;2022-12-13T10:21:08;8.27;;;4.05;;
23394;SDS011;11870;53.084;18.206;2022-12-13T10:23:50;7.38;;;3.80;;
23394;SDS011;11870;53.084;18.206;2022-12-13T10:26:16;8.43;;;4.40;;
23394;SDS011;11870;53.084;18.206;2022-12-13T10:28:42;11.38;;;4.47;;
23394;SDS011;11870;53.084;18.206;2022-12-13T10:31:14;12.80;;;4.35;;
23394;SDS011;11870;53.084;18.206;2022-12-13T10:33:49;6.93;;;4.07;;
23394;SDS011;11870;53.084;18.206;2022-12-13T10:36:29;9.05;;;4.10;;
23394;SDS011;11870;53.084;18.206;2022-12-13T10:38:55;6.97;;;3.78;;
23394;SDS011;11870;53.084;18.206;2022-12-13T10:46:50;6.75;;;4.00;;
23394;SDS011;11870;53.084;18.206;2022-12-13T10:49:22;8.32;;;4.05;;
23394;SDS011;11870;53.084;18.206;2022-12-13T10:51:50;7.22;;;3.47;;
23394;SDS011;11870;53.084;18.206;2022-12-13T10:54:31;7.00;;;4.03;;
23394;SDS011;11870;53.084;18.206;2022-12-13T10:57:00;7.60;;;3.97;;
23394;SDS011;11870;53.084;18.206;2022-12-13T10:59:31;7.00;;;3.85;;
23394;SDS011;11870;53.084;18.206;2022-12-13T11:01:58;8.07;;;4.13;;
23394;SDS011;11870;53.084;18.206;2022-12-13T11:04:27;10.63;;;4.20;;
23394;SDS011;11870;53.084;18.206;2022-12-13T11:06:56;9.13;;;3.90;;
23394;SDS011;11870;53.084;18.206;2022-12-13T11:09:26;7.65;;;4.00;;
23394;SDS011;11870;53.084;18.206;2022-12-13T11:11:59;8.05;;;3.97;;
23394;SDS011;11870;53.084;18.206;2022-12-13T11:14:33;8.55;;;3.80;;
23394;SDS011;11870;53.084;18.206;2022-12-13T11:17:06;8.57;;;4.47;;
23394;SDS011;11870;53.084;18.206;2022-12-13T11:19:36;9.95;;;4.30;;
23394;SDS011;11870;53.084;18.206;2022-12-13T11:22:05;8.63;;;4.57;;
23394;SDS011;11870;53.084;18.206;2022-12-13T11:24:37;8.15;;;3.72;;
23394;SDS011;11870;53.084;18.206;2022-12-13T11:30:15;8.30;;;4.20;;
23394;SDS011;11870;53.084;18.206;2022-12-13T11:35:31;7.22;;;4.07;;
23394;SDS011;11870;53.084;18.206;2022-12-13T11:40:43;6.80;;;4.35;;
23394;SDS011;11870;53.084;18.206;2022-12-13T11:46:03;9.23;;;4.03;;
23394;SDS011;11870;53.084;18.206;2022-12-13T11:48:49;6.75;;;3.80;;
23394;SDS011;11870;53.084;18.206;2022-12-13T11:51:26;7.65;;;4.10;;
23394;SDS011;11870;53.084;18.206;2022-12-13T11:54:02;7.07;;;3.78;;
23394;SDS011;11870;53.084;18.206;2022-12-13T11:56:37;10.02;;;5.22;;
23394;SDS011;11870;53.084;18.206;2022-12-13T12:04:38;57.67;;;15.85;;
23394;SDS011;11870;53.084;18.206;2022-12-13T12:07:21;11.13;;;5.03;;
23394;SDS011;11870;53.084;18.206;2022-12-13T12:10:37;8.07;;;4.10;;
23394;SDS011;11870;53.084;18.206;2022-12-13T12:18:30;7.03;;;3.67;;
23394;SDS011;11870;53.084;18.206;2022-12-13T12:26:09;7.00;;;3.67;;
23394;SDS011;11870;53.084;18.206;2022-12-13T12:34:45;7.80;;;3.33;;
23394;SDS011;11870;53.084;18.206;2022-12-13T12:43:37;6.30;;;3.53;;
23394;SDS011;11870;53.084;18.206;2022-12-13T12:51:44;9.68;;;4.63;;
23394;SDS011;11870;53.084;18.206;2022-12-13T12:54:39;8.45;;;5.20;;
23394;SDS011;11870;53.084;18.206;2022-12-13T13:05:38;11.55;;;5.07;;
23394;SDS011;11870;53.084;18.206;2022-12-13T13:08:24;9.73;;;3.88;;
23394;SDS011;11870;53.084;18.206;2022-12-13T13:11:07;8.82;;;4.93;;
23394;SDS011;11870;53.084;18.206;2022-12-13T13:13:47;10.15;;;5.20;;
23394;SDS011;11870;53.084;18.206;2022-12-13T13:16:39;8.02;;;4.72;;
23394;SDS011;11870;53.084;18.206;2022-12-13T13:21:44;13.38;;;6.25;;
23394;SDS011;11870;53.084;18.206;2022-12-13T13:24:18;22.98;;;10.70;;
23394;SDS011;11870;53.084;18.206;2022-12-13T13:26:55;11.13;;;6.07;;
23394;SDS011;11870;53.084;18.206;2022-12-13T13:34:39;8.98;;;4.95;;
23394;SDS011;11870;53.084;18.206;2022-12-13T13:45:51;8.50;;;3.40;;
23394;SDS011;11870;53.084;18.206;2022-12-13T13:54:12;7.18;;;3.55;;
23394;SDS011;11870;53.084;18.206;2022-12-13T14:10:49;8.45;;;3.33;;
23394;SDS011;11870;53.084;18.206;2022-12-13T14:24:41;7.30;;;3.92;;
23394;SDS011;11870;53.084;18.206;2022-12-13T14:30:17;7.68;;;4.15;;
23394;SDS011;11870;53.084;18.206;2022-12-13T14:32:46;8.25;;;4.10;;
23394;SDS011;11870;53.084;18.206;2022-12-13T14:35:49;7.22;;;3.58;;
23394;SDS011;11870;53.084;18.206;2022-12-13T14:38:21;7.95;;;4.05;;
23394;SDS011;11870;53.084;18.206;2022-12-13T14:40:53;10.70;;;4.38;;
23394;SDS011;11870;53.084;18.206;2022-12-13T14:43:24;9.70;;;4.65;;
23394;SDS011;11870;53.084;18.206;2022-12-13T14:45:53;7.95;;;4.15;;
23394;SDS011;11870;53.084;18.206;2022-12-13T14:48:25;8.80;;;3.90;;
23394;SDS011;11870;53.084;18.206;2022-12-13T14:50:53;8.63;;;3.97;;
23394;SDS011;11870;53.084;18.206;2022-12-13T14:53:36;10.13;;;4.75;;
23394;SDS011;11870;53.084;18.206;2022-12-13T14:56:11;13.23;;;5.75;;
23394;SDS011;11870;53.084;18.206;2022-12-13T14:58:39;10.07;;;3.92;;
23394;SDS011;11870;53.084;18.206;2022-12-13T15:01:30;9.88;;;4.68;;
23394;SDS011;11870;53.084;18.206;2022-12-13T15:06:54;9.60;;;4.45;;
23394;SDS011;11870;53.084;18.206;2022-12-13T15:09:44;10.55;;;4.90;;
23394;SDS011;11870;53.084;18.206;2022-12-13T15:12:15;10.60;;;4.45;;
23394;SDS011;11870;53.084;18.206;2022-12-13T15:14:55;9.48;;;5.00;;
23394;SDS011;11870;53.084;18.206;2022-12-13T15:17:31;12.98;;;4.57;;
23394;SDS011;11870;53.084;18.206;2022-12-13T15:19:59;14.25;;;5.68;;
23394;SDS011;11870;53.084;18.206;2022-12-13T15:22:26;10.98;;;5.15;;
23394;SDS011;11870;53.084;18.206;2022-12-13T15:24:53;18.67;;;8.32;;
23394;SDS011;11870;53.084;18.206;2022-12-13T15:27:20;13.38;;;5.38;;
23394;SDS011;11870;53.084;18.206;2022-12-13T15:29:48;10.82;;;5.70;;
23394;SDS011;11870;53.084;18.206;2022-12-13T15:32:17;11.55;;;4.93;;
23394;SDS011;11870;53.084;18.206;2022-12-13T15:34:45;11.40;;;5.10;;
23394;SDS011;11870;53.084;18.206;2022-12-13T15:37:16;10.27;;;4.70;;
23394;SDS011;11870;53.084;18.206;2022-12-13T15:39:46;10.25;;;4.82;;
23394;SDS011;11870;53.084;18.206;2022-12-13T15:42:15;14.50;;;6.13;;
23394;SDS011;11870;53.084;18.206;2022-12-13T15:44:47;11.93;;;4.88;;
23394;SDS011;11870;53.084;18.206;2022-12-13T15:47:18;12.23;;;5.10;;
23394;SDS011;11870;53.084;18.206;2022-12-13T15:49:53;15.32;;;5.05;;
23394;SDS011;11870;53.084;18.206;2022-12-13T15:57:47;9.75;;;5.43;;
23394;SDS011;11870;53.084;18.206;2022-12-13T16:02:56;15.27;;;5.50;;
23394;SDS011;11870;53.084;18.206;2022-12-13T16:05:53;12.18;;;5.15;;
23394;SDS011;11870;53.084;18.206;2022-12-13T16:10:56;12.43;;;5.85;;
23394;SDS011;11870;53.084;18.206;2022-12-13T16:13:27;16.00;;;6.28;;
23394;SDS011;11870;53.084;18.206;2022-12-13T16:15:58;14.10;;;5.93;;
23394;SDS011;11870;53.084;18.206;2022-12-13T16:18:41;15.27;;;5.97;;
23394;SDS011;11870;53.084;18.206;2022-12-13T16:21:09;11.77;;;5.70;;
23394;SDS011;11870;53.084;18.206;2022-12-13T16:23:35;13.55;;;6.25;;
23394;SDS011;11870;53.084;18.206;2022-12-13T16:26:01;14.30;;;5.88;;
23394;SDS011;11870;53.084;18.206;2022-12-13T16:28:27;14.90;;;6.30;;
23394;SDS011;11870;53.084;18.206;2022-12-13T16:30:55;13.98;;;5.93;;
23394;SDS011;11870;53.084;18.206;2022-12-13T16:33:26;14.68;;;5.88;;
23394;SDS011;11870;53.084;18.206;2022-12-13T16:35:53;15.25;;;5.80;;
23394;SDS011;11870;53.084;18.206;2022-12-13T16:38:20;15.75;;;6.65;;
23394;SDS011;11870;53.084;18.206;2022-12-13T16:40:46;12.52;;;6.07;;
23394;SDS011;11870;53.084;18.206;2022-12-13T16:43:16;19.23;;;7.32;;
23394;SDS011;11870;53.084;18.206;2022-12-13T16:45:44;12.60;;;6.35;;
23394;SDS011;11870;53.084;18.206;2022-12-13T16:48:13;14.02;;;6.82;;
23394;SDS011;11870;53.084;18.206;2022-12-13T16:50:43;17.25;;;6.57;;
23394;SDS011;11870;53.084;18.206;2022-12-13T16:53:10;15.32;;;6.43;;
23394;SDS011;11870;53.084;18.206;2022-12-13T16:55:37;12.93;;;6.15;;
23394;SDS011;11870;53.084;18.206;2022-12-13T16:58:04;21.20;;;7.13;;
23394;SDS011;11870;53.084;18.206;2022-12-13T17:00:32;15.63;;;7.03;;
23394;SDS011;11870;53.084;18.206;2022-12-13T17:02:58;17.63;;;7.82;;